sensor_id;sensor_type;location;lat;lon;timestamp;noise_LAeq;noise_LA_min;noise_LA_max;noise_LA01;noise_LA95
74496;Laerm;62979;55.720;37.606;2023-04-24T00:01:10;49.41;44.73;58.29;;
74496;Laerm;62979;55.720;37.606;2023-04-24T00:03:38;49.92;45.27;66.10;;
74496;Laerm;62979;55.720;37.606;2023-04-24T00:06:06;49.88;45.54;58.91;;
74496;Laerm;62979;55.720;37.606;2023-04-24T00:08:34;49.55;45.30;56.91;;
74496;Laerm;62979;55.720;37.606;2023-04-24T00:11:01;50.77;45.33;58.66;;
74496;Laerm;62979;55.720;37.606;2023-04-24T00:13:28;49.55;45.20;58.11;;
74496;Laerm;62979;55.720;37.606;2023-04-24T00:15:55;50.47;45.79;57.29;;
74496;Laerm;62979;55.720;37.606;2023-04-24T00:18:23;50.12;45.79;55.82;;
74496;Laerm;62979;55.720;37.606;2023-04-24T00:20:50;52.05;45.79;66.91;;
74496;Laerm;62979;55.720;37.606;2023-04-24T00:23:17;50.51;45.52;55.69;;
74496;Laerm;62979;55.720;37.606;2023-04-24T00:25:44;49.76;45.91;54.37;;
74496;Laerm;62979;55.720;37.606;2023-04-24T00:28:11;50.06;44.87;56.86;;
74496;Laerm;62979;55.720;37.606;2023-04-24T00:30:38;49.91;45.86;56.08;;
74496;Laerm;62979;55.720;37.606;2023-04-24T00:33:05;49.12;44.78;53.91;;
74496;Laerm;62979;55.720;37.606;2023-04-24T00:35:33;49.72;46.09;57.50;;
74496;Laerm;62979;55.720;37.606;2023-04-24T00:38:00;48.52;44.00;53.09;;
74496;Laerm;62979;55.720;37.606;2023-04-24T00:40:28;49.05;44.40;60.62;;
74496;Laerm;62979;55.720;37.606;2023-04-24T00:42:55;47.65;43.47;55.78;;
74496;Laerm;62979;55.720;37.606;2023-04-24T00:45:22;49.16;44.89;54.55;;
74496;Laerm;62979;55.720;37.606;2023-04-24T00:47:52;48.39;44.74;53.74;;
74496;Laerm;62979;55.720;37.606;2023-04-24T00:50:21;48.58;44.94;52.43;;
74496;Laerm;62979;55.720;37.606;2023-04-24T00:52:49;50.68;45.35;64.56;;
74496;Laerm;62979;55.720;37.606;2023-04-24T00:55:17;49.39;44.96;53.80;;
74496;Laerm;62979;55.720;37.606;2023-04-24T00:57:45;48.44;44.82;53.62;;
74496;Laerm;62979;55.720;37.606;2023-04-24T01:00:14;48.98;44.75;55.27;;
74496;Laerm;62979;55.720;37.606;2023-04-24T01:02:44;49.37;44.94;56.28;;
74496;Laerm;62979;55.720;37.606;2023-04-24T01:05:12;49.45;45.32;54.37;;
74496;Laerm;62979;55.720;37.606;2023-04-24T01:07:43;49.65;44.29;54.30;;
74496;Laerm;62979;55.720;37.606;2023-04-24T01:10:14;49.65;45.31;54.99;;
74496;Laerm;62979;55.720;37.606;2023-04-24T01:12:42;49.89;45.78;53.72;;
74496;Laerm;62979;55.720;37.606;2023-04-24T01:15:10;49.77;45.46;54.18;;
74496;Laerm;62979;55.720;37.606;2023-04-24T01:17:37;48.55;43.52;53.11;;
74496;Laerm;62979;55.720;37.606;2023-04-24T01:20:06;48.86;44.58;53.88;;
74496;Laerm;62979;55.720;37.606;2023-04-24T01:22:35;48.61;44.09;53.93;;
74496;Laerm;62979;55.720;37.606;2023-04-24T01:25:02;49.47;44.45;56.37;;
74496;Laerm;62979;55.720;37.606;2023-04-24T01:27:30;48.40;44.24;52.73;;
74496;Laerm;62979;55.720;37.606;2023-04-24T01:29:57;50.26;45.53;55.38;;
74496;Laerm;62979;55.720;37.606;2023-04-24T01:32:25;51.82;45.95;60.59;;
74496;Laerm;62979;55.720;37.606;2023-04-24T01:34:52;51.66;45.90;64.34;;
74496;Laerm;62979;55.720;37.606;2023-04-24T01:37:19;49.75;45.62;56.20;;
74496;Laerm;62979;55.720;37.606;2023-04-24T01:39:47;49.43;45.36;57.56;;
74496;Laerm;62979;55.720;37.606;2023-04-24T01:42:14;50.43;45.44;57.08;;
74496;Laerm;62979;55.720;37.606;2023-04-24T01:44:42;51.22;46.07;64.13;;
74496;Laerm;62979;55.720;37.606;2023-04-24T01:47:09;51.02;46.61;62.81;;
74496;Laerm;62979;55.720;37.606;2023-04-24T01:49:38;52.88;47.04;61.76;;
74496;Laerm;62979;55.720;37.606;2023-04-24T01:52:04;51.59;46.27;57.44;;
74496;Laerm;62979;55.720;37.606;2023-04-24T01:54:31;51.00;46.90;54.95;;
74496;Laerm;62979;55.720;37.606;2023-04-24T01:57:00;51.89;47.91;55.54;;
74496;Laerm;62979;55.720;37.606;2023-04-24T01:59:28;51.83;48.07;58.50;;
74496;Laerm;62979;55.720;37.606;2023-04-24T02:01:56;51.28;45.90;60.88;;
74496;Laerm;62979;55.720;37.606;2023-04-24T02:04:23;52.81;48.82;63.24;;
74496;Laerm;62979;55.720;37.606;2023-04-24T02:06:50;51.66;47.20;58.94;;
74496;Laerm;62979;55.720;37.606;2023-04-24T02:09:17;52.24;48.35;57.25;;
74496;Laerm;62979;55.720;37.606;2023-04-24T02:11:44;52.36;48.51;61.20;;
74496;Laerm;62979;55.720;37.606;2023-04-24T02:14:12;53.08;48.80;61.92;;
74496;Laerm;62979;55.720;37.606;2023-04-24T02:16:39;53.02;47.83;63.18;;
74496;Laerm;62979;55.720;37.606;2023-04-24T02:19:06;52.89;48.84;61.10;;
74496;Laerm;62979;55.720;37.606;2023-04-24T02:21:33;52.66;48.94;59.21;;
74496;Laerm;62979;55.720;37.606;2023-04-24T02:24:01;51.81;47.39;61.03;;
74496;Laerm;62979;55.720;37.606;2023-04-24T02:26:28;52.18;47.59;59.55;;
74496;Laerm;62979;55.720;37.606;2023-04-24T02:28:57;53.64;48.21;64.61;;
74496;Laerm;62979;55.720;37.606;2023-04-24T02:31:26;52.89;48.73;57.05;;
74496;Laerm;62979;55.720;37.606;2023-04-24T02:33:53;52.47;48.44;58.27;;
74496;Laerm;62979;55.720;37.606;2023-04-24T02:36:20;52.33;48.83;59.14;;
74496;Laerm;62979;55.720;37.606;2023-04-24T02:38:47;53.16;49.63;58.11;;
74496;Laerm;62979;55.720;37.606;2023-04-24T02:41:14;54.67;49.90;63.07;;
74496;Laerm;62979;55.720;37.606;2023-04-24T02:43:41;54.39;49.22;61.45;;
74496;Laerm;62979;55.720;37.606;2023-04-24T02:46:08;54.46;49.64;62.32;;
74496;Laerm;62979;55.720;37.606;2023-04-24T02:48:39;54.89;50.78;62.82;;
74496;Laerm;62979;55.720;37.606;2023-04-24T02:51:05;54.94;51.03;59.77;;
74496;Laerm;62979;55.720;37.606;2023-04-24T02:53:33;54.79;50.50;61.51;;
74496;Laerm;62979;55.720;37.606;2023-04-24T02:55:59;55.90;52.51;60.95;;
74496;Laerm;62979;55.720;37.606;2023-04-24T02:58:27;56.32;51.64;65.28;;
74496;Laerm;62979;55.720;37.606;2023-04-24T03:00:54;57.99;51.93;66.59;;
74496;Laerm;62979;55.720;37.606;2023-04-24T03:03:22;56.13;51.76;63.93;;
74496;Laerm;62979;55.720;37.606;2023-04-24T03:05:50;56.38;51.38;69.91;;
74496;Laerm;62979;55.720;37.606;2023-04-24T03:08:17;56.07;52.12;64.44;;
74496;Laerm;62979;55.720;37.606;2023-04-24T03:10:44;56.02;52.14;64.19;;
74496;Laerm;62979;55.720;37.606;2023-04-24T03:13:11;55.76;52.11;59.03;;
74496;Laerm;62979;55.720;37.606;2023-04-24T03:15:38;57.38;52.62;64.18;;
74496;Laerm;62979;55.720;37.606;2023-04-24T03:18:05;57.05;52.43;69.97;;
74496;Laerm;62979;55.720;37.606;2023-04-24T03:20:32;56.49;52.99;64.22;;
74496;Laerm;62979;55.720;37.606;2023-04-24T03:23:00;56.82;53.44;62.32;;
74496;Laerm;62979;55.720;37.606;2023-04-24T03:25:27;58.38;53.14;65.90;;
74496;Laerm;62979;55.720;37.606;2023-04-24T03:27:53;57.66;53.09;67.49;;
74496;Laerm;62979;55.720;37.606;2023-04-24T03:30:21;57.25;52.73;63.47;;
74496;Laerm;62979;55.720;37.606;2023-04-24T03:32:49;57.45;53.42;63.36;;
74496;Laerm;62979;55.720;37.606;2023-04-24T03:35:16;56.69;52.76;68.80;;
74496;Laerm;62979;55.720;37.606;2023-04-24T03:37:43;57.28;52.90;65.00;;
74496;Laerm;62979;55.720;37.606;2023-04-24T03:40:11;57.00;52.27;67.69;;
74496;Laerm;62979;55.720;37.606;2023-04-24T03:42:38;55.64;51.56;61.04;;
74496;Laerm;62979;55.720;37.606;2023-04-24T03:45:07;54.86;50.93;58.47;;
74496;Laerm;62979;55.720;37.606;2023-04-24T03:47:34;55.81;51.16;62.28;;
74496;Laerm;62979;55.720;37.606;2023-04-24T03:50:01;55.93;50.65;65.86;;
74496;Laerm;62979;55.720;37.606;2023-04-24T03:52:28;57.69;51.37;69.66;;
74496;Laerm;62979;55.720;37.606;2023-04-24T03:54:55;55.77;50.53;61.23;;
74496;Laerm;62979;55.720;37.606;2023-04-24T03:57:23;56.06;50.49;66.71;;
74496;Laerm;62979;55.720;37.606;2023-04-24T03:59:50;54.23;50.07;64.91;;
74496;Laerm;62979;55.720;37.606;2023-04-24T04:02:18;53.96;48.94;58.91;;
74496;Laerm;62979;55.720;37.606;2023-04-24T04:04:45;54.86;49.53;63.54;;
74496;Laerm;62979;55.720;37.606;2023-04-24T04:07:12;55.16;49.87;69.57;;
74496;Laerm;62979;55.720;37.606;2023-04-24T04:09:39;55.39;50.00;65.95;;
74496;Laerm;62979;55.720;37.606;2023-04-24T04:12:06;54.57;49.15;72.58;;
74496;Laerm;62979;55.720;37.606;2023-04-24T04:14:34;54.18;48.59;60.56;;
74496;Laerm;62979;55.720;37.606;2023-04-24T04:17:02;54.10;47.95;62.13;;
74496;Laerm;62979;55.720;37.606;2023-04-24T04:19:28;52.54;46.23;61.56;;
74496;Laerm;62979;55.720;37.606;2023-04-24T04:21:56;54.32;48.49;63.91;;
74496;Laerm;62979;55.720;37.606;2023-04-24T04:24:23;54.63;47.83;67.83;;
74496;Laerm;62979;55.720;37.606;2023-04-24T04:26:52;56.25;47.45;64.17;;
74496;Laerm;62979;55.720;37.606;2023-04-24T04:29:22;54.69;46.79;65.23;;
74496;Laerm;62979;55.720;37.606;2023-04-24T04:31:50;54.41;48.68;65.34;;
74496;Laerm;62979;55.720;37.606;2023-04-24T04:34:17;55.29;48.53;64.17;;
74496;Laerm;62979;55.720;37.606;2023-04-24T04:36:45;53.48;48.16;68.44;;
74496;Laerm;62979;55.720;37.606;2023-04-24T04:39:11;54.39;49.34;62.00;;
74496;Laerm;62979;55.720;37.606;2023-04-24T04:41:39;56.40;50.81;68.01;;
74496;Laerm;62979;55.720;37.606;2023-04-24T04:44:07;54.29;47.74;63.93;;
74496;Laerm;62979;55.720;37.606;2023-04-24T04:46:35;55.41;48.22;65.27;;
74496;Laerm;62979;55.720;37.606;2023-04-24T04:49:05;56.04;48.47;63.37;;
74496;Laerm;62979;55.720;37.606;2023-04-24T04:51:33;54.38;48.12;69.20;;
74496;Laerm;62979;55.720;37.606;2023-04-24T04:54:00;61.86;48.99;74.21;;
74496;Laerm;62979;55.720;37.606;2023-04-24T04:56:27;56.33;48.51;68.71;;
74496;Laerm;62979;55.720;37.606;2023-04-24T04:58:54;57.51;50.02;68.28;;
74496;Laerm;62979;55.720;37.606;2023-04-24T05:01:21;58.74;51.16;65.17;;
74496;Laerm;62979;55.720;37.606;2023-04-24T05:03:49;57.56;49.96;68.38;;
74496;Laerm;62979;55.720;37.606;2023-04-24T05:06:17;59.39;46.87;76.11;;
74496;Laerm;62979;55.720;37.606;2023-04-24T05:08:44;58.05;50.37;68.94;;
74496;Laerm;62979;55.720;37.606;2023-04-24T05:11:12;57.52;49.05;65.58;;
74496;Laerm;62979;55.720;37.606;2023-04-24T05:13:40;56.37;47.90;72.29;;
74496;Laerm;62979;55.720;37.606;2023-04-24T05:16:07;56.20;48.04;65.70;;
74496;Laerm;62979;55.720;37.606;2023-04-24T05:18:34;56.24;49.92;61.87;;
74496;Laerm;62979;55.720;37.606;2023-04-24T05:21:01;58.57;49.10;67.04;;
74496;Laerm;62979;55.720;37.606;2023-04-24T05:23:29;58.58;51.89;71.69;;
74496;Laerm;62979;55.720;37.606;2023-04-24T05:25:56;61.72;53.09;74.78;;
74496;Laerm;62979;55.720;37.606;2023-04-24T05:28:23;58.86;51.25;68.53;;
74496;Laerm;62979;55.720;37.606;2023-04-24T05:30:53;58.27;50.55;65.99;;
74496;Laerm;62979;55.720;37.606;2023-04-24T05:33:21;55.69;46.75;63.66;;
74496;Laerm;62979;55.720;37.606;2023-04-24T05:35:48;57.04;50.62;74.58;;
74496;Laerm;62979;55.720;37.606;2023-04-24T05:38:15;56.36;48.65;62.79;;
74496;Laerm;62979;55.720;37.606;2023-04-24T05:40:44;56.98;49.88;62.93;;
74496;Laerm;62979;55.720;37.606;2023-04-24T05:43:12;60.57;50.72;73.94;;
74496;Laerm;62979;55.720;37.606;2023-04-24T05:45:39;59.68;52.25;71.61;;
74496;Laerm;62979;55.720;37.606;2023-04-24T05:48:06;57.12;47.85;70.92;;
74496;Laerm;62979;55.720;37.606;2023-04-24T05:50:33;63.50;52.37;80.37;;
74496;Laerm;62979;55.720;37.606;2023-04-24T05:53:00;67.69;54.67;78.92;;
74496;Laerm;62979;55.720;37.606;2023-04-24T05:55:27;61.74;49.69;73.77;;
74496;Laerm;62979;55.720;37.606;2023-04-24T05:57:56;56.03;48.87;63.46;;
74496;Laerm;62979;55.720;37.606;2023-04-24T06:00:24;57.63;50.22;77.83;;
74496;Laerm;62979;55.720;37.606;2023-04-24T06:02:51;55.85;47.06;66.38;;
74496;Laerm;62979;55.720;37.606;2023-04-24T06:05:18;53.04;45.40;60.80;;
74496;Laerm;62979;55.720;37.606;2023-04-24T06:07:45;60.52;50.20;68.91;;
74496;Laerm;62979;55.720;37.606;2023-04-24T06:10:12;62.51;51.23;71.45;;
74496;Laerm;62979;55.720;37.606;2023-04-24T06:12:38;62.51;50.11;74.92;;
74496;Laerm;62979;55.720;37.606;2023-04-24T06:15:08;56.89;48.44;67.86;;
74496;Laerm;62979;55.720;37.606;2023-04-24T06:17:35;56.00;46.61;75.74;;
74496;Laerm;62979;55.720;37.606;2023-04-24T06:20:03;55.61;46.39;66.36;;
74496;Laerm;62979;55.720;37.606;2023-04-24T06:22:31;56.07;46.29;68.18;;
74496;Laerm;62979;55.720;37.606;2023-04-24T06:25:00;57.74;48.32;69.02;;
74496;Laerm;62979;55.720;37.606;2023-04-24T06:27:27;59.46;48.45;77.54;;
74496;Laerm;62979;55.720;37.606;2023-04-24T06:29:54;59.65;47.65;72.60;;
74496;Laerm;62979;55.720;37.606;2023-04-24T06:32:23;57.58;50.12;78.56;;
74496;Laerm;62979;55.720;37.606;2023-04-24T06:34:51;64.44;51.15;74.14;;
74496;Laerm;62979;55.720;37.606;2023-04-24T06:37:19;55.83;46.10;63.99;;
74496;Laerm;62979;55.720;37.606;2023-04-24T06:39:46;62.52;49.85;73.14;;
74496;Laerm;62979;55.720;37.606;2023-04-24T06:42:13;62.18;47.83;74.42;;
74496;Laerm;62979;55.720;37.606;2023-04-24T06:44:41;55.96;49.82;63.39;;
74496;Laerm;62979;55.720;37.606;2023-04-24T06:47:09;59.41;48.25;67.15;;
74496;Laerm;62979;55.720;37.606;2023-04-24T06:49:40;62.73;52.10;73.23;;
74496;Laerm;62979;55.720;37.606;2023-04-24T06:52:07;61.07;49.59;72.42;;
74496;Laerm;62979;55.720;37.606;2023-04-24T06:54:34;56.81;50.58;66.84;;
74496;Laerm;62979;55.720;37.606;2023-04-24T06:57:01;61.85;50.96;72.49;;
74496;Laerm;62979;55.720;37.606;2023-04-24T06:59:28;58.20;48.33;66.96;;
74496;Laerm;62979;55.720;37.606;2023-04-24T07:01:55;56.74;48.82;74.43;;
74496;Laerm;62979;55.720;37.606;2023-04-24T07:04:22;55.87;49.18;64.07;;
74496;Laerm;62979;55.720;37.606;2023-04-24T07:06:52;57.28;49.60;65.02;;
74496;Laerm;62979;55.720;37.606;2023-04-24T07:09:21;57.76;50.49;73.28;;
74496;Laerm;62979;55.720;37.606;2023-04-24T07:11:49;59.80;50.44;67.38;;
74496;Laerm;62979;55.720;37.606;2023-04-24T07:14:17;59.23;52.48;69.98;;
74496;Laerm;62979;55.720;37.606;2023-04-24T07:16:44;56.05;51.61;64.08;;
74496;Laerm;62979;55.720;37.606;2023-04-24T07:19:12;56.93;51.39;68.42;;
74496;Laerm;62979;55.720;37.606;2023-04-24T07:21:39;55.60;50.92;63.75;;
74496;Laerm;62979;55.720;37.606;2023-04-24T07:24:08;56.76;50.60;72.69;;
74496;Laerm;62979;55.720;37.606;2023-04-24T07:26:37;55.85;48.39;66.50;;
74496;Laerm;62979;55.720;37.606;2023-04-24T07:29:04;55.94;49.98;67.57;;
74496;Laerm;62979;55.720;37.606;2023-04-24T07:31:31;55.05;49.30;68.22;;
74496;Laerm;62979;55.720;37.606;2023-04-24T07:34:00;56.37;49.76;65.08;;
74496;Laerm;62979;55.720;37.606;2023-04-24T07:36:27;56.58;50.14;74.43;;
74496;Laerm;62979;55.720;37.606;2023-04-24T07:38:54;56.47;50.15;65.04;;
74496;Laerm;62979;55.720;37.606;2023-04-24T07:41:23;56.17;50.02;63.47;;
74496;Laerm;62979;55.720;37.606;2023-04-24T07:43:50;56.89;50.48;65.09;;
74496;Laerm;62979;55.720;37.606;2023-04-24T07:46:18;55.76;49.01;66.51;;
74496;Laerm;62979;55.720;37.606;2023-04-24T07:48:44;56.30;49.99;68.72;;
74496;Laerm;62979;55.720;37.606;2023-04-24T07:51:13;56.19;48.71;67.10;;
74496;Laerm;62979;55.720;37.606;2023-04-24T07:53:41;58.47;49.71;80.23;;
74496;Laerm;62979;55.720;37.606;2023-04-24T07:56:08;56.04;48.97;64.04;;
74496;Laerm;62979;55.720;37.606;2023-04-24T07:58:36;55.61;48.99;71.38;;
74496;Laerm;62979;55.720;37.606;2023-04-24T08:01:03;56.15;48.48;66.63;;
74496;Laerm;62979;55.720;37.606;2023-04-24T08:03:30;56.81;50.00;74.85;;
74496;Laerm;62979;55.720;37.606;2023-04-24T08:05:57;57.66;49.48;76.55;;
74496;Laerm;62979;55.720;37.606;2023-04-24T08:08:25;55.83;49.12;64.41;;
74496;Laerm;62979;55.720;37.606;2023-04-24T08:10:52;60.15;48.99;72.12;;
74496;Laerm;62979;55.720;37.606;2023-04-24T08:13:18;57.37;47.17;72.58;;
74496;Laerm;62979;55.720;37.606;2023-04-24T08:15:47;56.87;49.81;66.43;;
74496;Laerm;62979;55.720;37.606;2023-04-24T08:18:14;53.77;47.44;68.93;;
74496;Laerm;62979;55.720;37.606;2023-04-24T08:20:41;56.62;49.32;65.58;;
74496;Laerm;62979;55.720;37.606;2023-04-24T08:23:08;57.70;50.11;68.41;;
74496;Laerm;62979;55.720;37.606;2023-04-24T08:25:35;56.80;48.26;67.66;;
74496;Laerm;62979;55.720;37.606;2023-04-24T08:28:03;55.76;48.72;63.91;;
74496;Laerm;62979;55.720;37.606;2023-04-24T08:30:30;55.48;46.95;75.27;;
74496;Laerm;62979;55.720;37.606;2023-04-24T08:32:58;53.60;46.76;64.91;;
74496;Laerm;62979;55.720;37.606;2023-04-24T08:35:25;53.90;47.92;61.37;;
74496;Laerm;62979;55.720;37.606;2023-04-24T08:37:53;55.93;47.30;64.14;;
74496;Laerm;62979;55.720;37.606;2023-04-24T08:40:27;55.64;47.08;64.01;;
74496;Laerm;62979;55.720;37.606;2023-04-24T08:42:55;54.45;45.72;62.21;;
74496;Laerm;62979;55.720;37.606;2023-04-24T08:45:23;57.13;47.20;67.74;;
74496;Laerm;62979;55.720;37.606;2023-04-24T08:47:53;55.04;48.06;64.70;;
74496;Laerm;62979;55.720;37.606;2023-04-24T08:50:22;56.10;47.37;64.62;;
74496;Laerm;62979;55.720;37.606;2023-04-24T08:52:51;54.32;47.08;61.94;;
74496;Laerm;62979;55.720;37.606;2023-04-24T08:55:19;55.86;46.37;67.67;;
74496;Laerm;62979;55.720;37.606;2023-04-24T08:57:51;54.40;47.37;65.26;;
74496;Laerm;62979;55.720;37.606;2023-04-24T09:00:21;53.72;46.88;61.77;;
74496;Laerm;62979;55.720;37.606;2023-04-24T09:02:50;58.19;48.32;72.63;;
74496;Laerm;62979;55.720;37.606;2023-04-24T09:05:18;56.36;49.22;68.42;;
74496;Laerm;62979;55.720;37.606;2023-04-24T09:07:54;59.61;50.57;69.50;;
74496;Laerm;62979;55.720;37.606;2023-04-24T09:10:22;55.35;48.14;62.80;;
74496;Laerm;62979;55.720;37.606;2023-04-24T09:12:51;56.61;50.14;63.94;;
74496;Laerm;62979;55.720;37.606;2023-04-24T09:15:18;55.62;49.40;66.00;;
74496;Laerm;62979;55.720;37.606;2023-04-24T09:17:46;55.27;46.79;67.25;;
74496;Laerm;62979;55.720;37.606;2023-04-24T09:20:13;55.45;48.87;63.06;;
74496;Laerm;62979;55.720;37.606;2023-04-24T09:22:41;55.96;46.36;71.67;;
74496;Laerm;62979;55.720;37.606;2023-04-24T09:25:10;55.64;46.87;67.52;;
74496;Laerm;62979;55.720;37.606;2023-04-24T09:27:42;54.88;48.98;62.95;;
74496;Laerm;62979;55.720;37.606;2023-04-24T09:30:11;55.48;49.89;77.34;;
74496;Laerm;62979;55.720;37.606;2023-04-24T09:32:38;56.23;50.23;64.53;;
74496;Laerm;62979;55.720;37.606;2023-04-24T09:35:07;58.05;50.80;68.54;;
74496;Laerm;62979;55.720;37.606;2023-04-24T09:37:36;56.62;50.17;66.82;;
74496;Laerm;62979;55.720;37.606;2023-04-24T09:40:16;53.82;46.93;63.06;;
74496;Laerm;62979;55.720;37.606;2023-04-24T09:42:45;56.50;50.70;63.16;;
74496;Laerm;62979;55.720;37.606;2023-04-24T09:45:12;55.66;49.03;67.09;;
74496;Laerm;62979;55.720;37.606;2023-04-24T09:47:40;55.01;48.47;64.00;;
74496;Laerm;62979;55.720;37.606;2023-04-24T09:50:13;54.58;48.21;62.83;;
74496;Laerm;62979;55.720;37.606;2023-04-24T09:52:44;54.73;48.91;60.57;;
74496;Laerm;62979;55.720;37.606;2023-04-24T09:55:19;56.52;50.22;63.07;;
74496;Laerm;62979;55.720;37.606;2023-04-24T09:57:50;54.90;47.53;66.06;;
74496;Laerm;62979;55.720;37.606;2023-04-24T10:00:21;53.68;47.43;63.02;;
74496;Laerm;62979;55.720;37.606;2023-04-24T10:02:58;53.51;46.60;61.41;;
74496;Laerm;62979;55.720;37.606;2023-04-24T10:05:28;54.80;47.80;63.62;;
74496;Laerm;62979;55.720;37.606;2023-04-24T10:08:00;55.42;49.14;65.58;;
74496;Laerm;62979;55.720;37.606;2023-04-24T10:10:29;55.23;46.56;68.36;;
74496;Laerm;62979;55.720;37.606;2023-04-24T10:12:56;54.98;46.60;62.10;;
74496;Laerm;62979;55.720;37.606;2023-04-24T10:15:24;54.47;47.13;66.46;;
74496;Laerm;62979;55.720;37.606;2023-04-24T10:17:53;55.78;48.86;62.51;;
74496;Laerm;62979;55.720;37.606;2023-04-24T10:20:22;56.36;47.01;69.99;;
74496;Laerm;62979;55.720;37.606;2023-04-24T10:22:52;55.58;47.84;63.46;;
74496;Laerm;62979;55.720;37.606;2023-04-24T10:25:20;52.47;47.79;58.41;;
74496;Laerm;62979;55.720;37.606;2023-04-24T10:27:50;53.31;47.23;67.44;;
74496;Laerm;62979;55.720;37.606;2023-04-24T10:30:18;55.22;47.39;64.55;;
74496;Laerm;62979;55.720;37.606;2023-04-24T10:32:46;54.08;47.40;62.71;;
74496;Laerm;62979;55.720;37.606;2023-04-24T10:35:14;53.82;45.90;65.16;;
74496;Laerm;62979;55.720;37.606;2023-04-24T10:37:45;55.74;48.82;66.31;;
74496;Laerm;62979;55.720;37.606;2023-04-24T10:40:18;59.35;49.75;71.54;;
74496;Laerm;62979;55.720;37.606;2023-04-24T10:42:51;56.52;47.29;68.46;;
74496;Laerm;62979;55.720;37.606;2023-04-24T10:45:21;54.71;47.53;70.96;;
74496;Laerm;62979;55.720;37.606;2023-04-24T10:47:56;55.73;46.53;73.46;;
74496;Laerm;62979;55.720;37.606;2023-04-24T10:50:27;58.16;48.78;70.86;;
74496;Laerm;62979;55.720;37.606;2023-04-24T10:53:06;56.82;51.24;74.85;;
74496;Laerm;62979;55.720;37.606;2023-04-24T10:55:42;56.24;50.85;66.92;;
74496;Laerm;62979;55.720;37.606;2023-04-24T10:58:11;56.87;52.04;67.53;;
74496;Laerm;62979;55.720;37.606;2023-04-24T11:00:40;57.08;51.33;66.65;;
74496;Laerm;62979;55.720;37.606;2023-04-24T11:03:23;54.90;50.20;63.90;;
74496;Laerm;62979;55.720;37.606;2023-04-24T11:06:02;56.17;48.97;65.21;;
74496;Laerm;62979;55.720;37.606;2023-04-24T11:08:37;57.19;50.64;67.92;;
74496;Laerm;62979;55.720;37.606;2023-04-24T11:11:10;55.90;51.42;65.68;;
74496;Laerm;62979;55.720;37.606;2023-04-24T11:14:07;56.54;48.83;65.24;;
74496;Laerm;62979;55.720;37.606;2023-04-24T11:16:42;61.06;51.16;71.30;;
74496;Laerm;62979;55.720;37.606;2023-04-24T11:19:20;63.45;49.96;75.49;;
74496;Laerm;62979;55.720;37.606;2023-04-24T11:21:54;56.74;49.56;70.36;;
74496;Laerm;62979;55.720;37.606;2023-04-24T11:24:38;62.18;54.24;73.27;;
74496;Laerm;62979;55.720;37.606;2023-04-24T11:27:11;61.92;54.84;70.27;;
74496;Laerm;62979;55.720;37.606;2023-04-24T11:29:47;60.26;52.85;68.80;;
74496;Laerm;62979;55.720;37.606;2023-04-24T11:32:17;58.39;51.29;74.93;;
74496;Laerm;62979;55.720;37.606;2023-04-24T11:34:48;57.47;51.82;64.53;;
74496;Laerm;62979;55.720;37.606;2023-04-24T11:37:15;60.32;51.26;71.58;;
74496;Laerm;62979;55.720;37.606;2023-04-24T11:39:42;60.97;53.13;67.89;;
74496;Laerm;62979;55.720;37.606;2023-04-24T11:42:09;57.85;51.96;63.49;;
74496;Laerm;62979;55.720;37.606;2023-04-24T11:44:36;61.12;49.97;83.75;;
74496;Laerm;62979;55.720;37.606;2023-04-24T11:47:06;60.10;52.34;77.33;;
74496;Laerm;62979;55.720;37.606;2023-04-24T11:49:33;58.32;50.58;77.17;;
74496;Laerm;62979;55.720;37.606;2023-04-24T11:52:00;59.99;52.61;83.66;;
74496;Laerm;62979;55.720;37.606;2023-04-24T11:54:27;60.38;54.04;73.85;;
74496;Laerm;62979;55.720;37.606;2023-04-24T11:56:55;60.14;53.66;76.74;;
74496;Laerm;62979;55.720;37.606;2023-04-24T11:59:23;60.86;52.11;76.21;;
74496;Laerm;62979;55.720;37.606;2023-04-24T12:01:50;59.23;52.03;77.16;;
74496;Laerm;62979;55.720;37.606;2023-04-24T12:04:18;57.71;49.99;76.19;;
74496;Laerm;62979;55.720;37.606;2023-04-24T12:07:01;60.63;52.73;75.82;;
74496;Laerm;62979;55.720;37.606;2023-04-24T12:09:28;60.33;49.82;70.33;;
74496;Laerm;62979;55.720;37.606;2023-04-24T12:11:56;58.85;49.86;66.85;;
74496;Laerm;62979;55.720;37.606;2023-04-24T12:14:23;61.68;54.95;68.22;;
74496;Laerm;62979;55.720;37.606;2023-04-24T12:16:50;63.88;55.86;72.14;;
74496;Laerm;62979;55.720;37.606;2023-04-24T12:19:21;62.54;56.83;74.01;;
74496;Laerm;62979;55.720;37.606;2023-04-24T12:22:05;62.87;53.28;70.86;;
74496;Laerm;62979;55.720;37.606;2023-04-24T12:24:32;62.06;53.36;78.90;;
74496;Laerm;62979;55.720;37.606;2023-04-24T12:26:59;61.77;53.57;69.99;;
74496;Laerm;62979;55.720;37.606;2023-04-24T12:29:27;58.32;49.40;66.85;;
74496;Laerm;62979;55.720;37.606;2023-04-24T12:31:54;60.85;49.54;75.33;;
74496;Laerm;62979;55.720;37.606;2023-04-24T12:34:25;58.75;48.77;75.00;;
74496;Laerm;62979;55.720;37.606;2023-04-24T12:36:52;60.02;53.63;68.51;;
74496;Laerm;62979;55.720;37.606;2023-04-24T12:39:20;60.83;53.44;68.53;;
74496;Laerm;62979;55.720;37.606;2023-04-24T12:41:58;62.40;53.08;68.74;;
74496;Laerm;62979;55.720;37.606;2023-04-24T12:44:30;60.35;53.86;68.34;;
74496;Laerm;62979;55.720;37.606;2023-04-24T12:47:00;61.29;55.07;69.31;;
74496;Laerm;62979;55.720;37.606;2023-04-24T12:49:30;61.00;51.99;72.29;;
74496;Laerm;62979;55.720;37.606;2023-04-24T12:51:57;56.22;49.99;76.36;;
74496;Laerm;62979;55.720;37.606;2023-04-24T12:54:25;55.33;48.61;63.77;;
74496;Laerm;62979;55.720;37.606;2023-04-24T12:56:51;55.57;48.63;66.22;;
74496;Laerm;62979;55.720;37.606;2023-04-24T12:59:18;55.79;48.51;74.37;;
74496;Laerm;62979;55.720;37.606;2023-04-24T13:01:45;57.77;48.30;70.12;;
74496;Laerm;62979;55.720;37.606;2023-04-24T13:04:12;55.60;49.77;72.10;;
74496;Laerm;62979;55.720;37.606;2023-04-24T13:06:40;56.77;50.49;68.72;;
74496;Laerm;62979;55.720;37.606;2023-04-24T13:09:07;57.86;50.30;67.26;;
74496;Laerm;62979;55.720;37.606;2023-04-24T13:11:35;55.36;49.85;66.33;;
74496;Laerm;62979;55.720;37.606;2023-04-24T13:14:02;57.37;50.52;64.96;;
74496;Laerm;62979;55.720;37.606;2023-04-24T13:16:29;56.04;49.13;65.32;;
74496;Laerm;62979;55.720;37.606;2023-04-24T13:18:56;56.24;49.76;66.92;;
74496;Laerm;62979;55.720;37.606;2023-04-24T13:21:22;55.91;48.51;63.13;;
74496;Laerm;62979;55.720;37.606;2023-04-24T13:23:51;55.83;48.65;67.58;;
74496;Laerm;62979;55.720;37.606;2023-04-24T13:26:18;56.22;50.53;63.37;;
74496;Laerm;62979;55.720;37.606;2023-04-24T13:28:45;63.68;49.35;82.44;;
74496;Laerm;62979;55.720;37.606;2023-04-24T13:31:12;57.00;48.95;71.50;;
74496;Laerm;62979;55.720;37.606;2023-04-24T13:33:39;56.28;50.04;66.53;;
74496;Laerm;62979;55.720;37.606;2023-04-24T13:36:07;66.29;50.77;87.48;;
74496;Laerm;62979;55.720;37.606;2023-04-24T13:38:34;58.77;49.68;67.36;;